sensor_id;sensor_type;location;lat;lon;timestamp;pressure;altitude;pressure_sealevel;temperature;humidity
4972;BME280;2501;51.214;6.768;2022-11-20T00:02:03;100973.28;;;3.39;81.68
4972;BME280;2501;51.214;6.768;2022-11-20T00:04:31;100972.91;;;3.30;81.60
4972;BME280;2501;51.214;6.768;2022-11-20T00:06:59;100971.44;;;3.37;81.68
4972;BME280;2501;51.214;6.768;2022-11-20T00:09:28;100961.72;;;3.31;81.67
4972;BME280;2501;51.214;6.768;2022-11-20T00:11:56;100964.50;;;3.36;81.73
4972;BME280;2501;51.214;6.768;2022-11-20T00:14:25;100955.69;;;3.55;81.45
4972;BME280;2501;51.214;6.768;2022-11-20T00:16:56;100969.97;;;3.21;81.06
4972;BME280;2501;51.214;6.768;2022-11-20T00:19:24;100972.19;;;3.34;81.39
4972;BME280;2501;51.214;6.768;2022-11-20T00:21:52;100966.63;;;3.24;81.60
4972;BME280;2501;51.214;6.768;2022-11-20T00:24:21;100968.50;;;3.28;81.75
4972;BME280;2501;51.214;6.768;2022-11-20T00:26:49;100967.19;;;3.17;82.00
4972;BME280;2501;51.214;6.768;2022-11-20T00:29:18;100971.38;;;3.13;82.25
4972;BME280;2501;51.214;6.768;2022-11-20T00:31:46;100968.63;;;3.08;82.30
4972;BME280;2501;51.214;6.768;2022-11-20T00:34:17;100963.31;;;3.28;82.50
4972;BME280;2501;51.214;6.768;2022-11-20T00:36:45;100962.25;;;3.23;82.14
4972;BME280;2501;51.214;6.768;2022-11-20T00:39:14;100966.56;;;3.22;82.31
4972;BME280;2501;51.214;6.768;2022-11-20T00:41:42;100967.72;;;3.08;82.76
4972;BME280;2501;51.214;6.768;2022-11-20T00:44:11;100962.00;;;3.17;82.92
4972;BME280;2501;51.214;6.768;2022-11-20T00:46:39;100962.75;;;3.14;82.66
4972;BME280;2501;51.214;6.768;2022-11-20T00:49:07;100957.78;;;3.19;82.65
4972;BME280;2501;51.214;6.768;2022-11-20T00:51:38;100960.31;;;3.17;82.54
4972;BME280;2501;51.214;6.768;2022-11-20T00:54:07;100967.13;;;3.15;82.85
4972;BME280;2501;51.214;6.768;2022-11-20T00:56:35;100956.53;;;3.09;83.12
4972;BME280;2501;51.214;6.768;2022-11-20T00:59:04;100956.00;;;3.18;83.01
4972;BME280;2501;51.214;6.768;2022-11-20T01:01:32;100955.25;;;3.20;83.01
4972;BME280;2501;51.214;6.768;2022-11-20T01:04:00;100958.53;;;3.16;83.22
4972;BME280;2501;51.214;6.768;2022-11-20T01:06:30;100956.47;;;3.07;83.51
4972;BME280;2501;51.214;6.768;2022-11-20T01:09:04;100950.69;;;3.14;83.62
4972;BME280;2501;51.214;6.768;2022-11-20T01:11:35;100954.72;;;3.06;83.65
4972;BME280;2501;51.214;6.768;2022-11-20T01:14:05;100950.81;;;3.18;83.85
4972;BME280;2501;51.214;6.768;2022-11-20T01:16:36;100945.63;;;3.18;83.85
4972;BME280;2501;51.214;6.768;2022-11-20T01:19:09;100941.41;;;3.20;83.82
4972;BME280;2501;51.214;6.768;2022-11-20T01:21:39;100944.69;;;3.15;83.76
4972;BME280;2501;51.214;6.768;2022-11-20T01:24:12;100940.25;;;3.13;83.77
4972;BME280;2501;51.214;6.768;2022-11-20T01:26:42;100945.44;;;3.13;84.16
4972;BME280;2501;51.214;6.768;2022-11-20T01:29:14;100947.03;;;3.32;83.79
4972;BME280;2501;51.214;6.768;2022-11-20T01:31:43;100949.75;;;3.12;83.80
4972;BME280;2501;51.214;6.768;2022-11-20T01:34:14;100954.22;;;3.17;84.22
4972;BME280;2501;51.214;6.768;2022-11-20T01:36:43;100952.25;;;3.09;84.12
4972;BME280;2501;51.214;6.768;2022-11-20T01:39:16;100943.88;;;3.17;84.22
4972;BME280;2501;51.214;6.768;2022-11-20T01:41:45;100937.53;;;3.08;84.25
4972;BME280;2501;51.214;6.768;2022-11-20T01:44:43;100946.88;;;3.05;84.87
4972;BME280;2501;51.214;6.768;2022-11-20T01:47:16;100941.47;;;3.21;84.59
4972;BME280;2501;51.214;6.768;2022-11-20T01:49:48;100937.59;;;3.10;84.46
4972;BME280;2501;51.214;6.768;2022-11-20T01:52:20;100938.88;;;3.21;84.73
4972;BME280;2501;51.214;6.768;2022-11-20T01:54:56;100937.03;;;3.19;84.32
4972;BME280;2501;51.214;6.768;2022-11-20T01:57:27;100935.44;;;3.00;84.89
4972;BME280;2501;51.214;6.768;2022-11-20T02:00:00;100932.41;;;3.10;84.83
4972;BME280;2501;51.214;6.768;2022-11-20T02:02:34;100937.97;;;2.98;84.68
4972;BME280;2501;51.214;6.768;2022-11-20T02:05:10;100930.78;;;3.13;85.00
4972;BME280;2501;51.214;6.768;2022-11-20T02:07:40;100926.50;;;3.14;85.01
4972;BME280;2501;51.214;6.768;2022-11-20T02:10:12;100922.31;;;3.18;84.89
4972;BME280;2501;51.214;6.768;2022-11-20T02:12:40;100920.47;;;3.15;84.84
4972;BME280;2501;51.214;6.768;2022-11-20T02:15:21;100916.72;;;3.07;84.67
4972;BME280;2501;51.214;6.768;2022-11-20T02:17:50;100909.97;;;3.10;85.11
4972;BME280;2501;51.214;6.768;2022-11-20T02:20:18;100901.13;;;3.05;84.91
4972;BME280;2501;51.214;6.768;2022-11-20T02:22:50;100899.81;;;2.72;86.21
4972;BME280;2501;51.214;6.768;2022-11-20T02:25:24;100894.63;;;2.72;86.94
4972;BME280;2501;51.214;6.768;2022-11-20T02:27:55;100891.78;;;2.66;87.24
4972;BME280;2501;51.214;6.768;2022-11-20T02:30:24;100896.22;;;2.68;87.30
4972;BME280;2501;51.214;6.768;2022-11-20T02:32:52;100893.31;;;2.61;87.52
4972;BME280;2501;51.214;6.768;2022-11-20T02:35:40;100902.69;;;2.57;87.95
4972;BME280;2501;51.214;6.768;2022-11-20T02:38:08;100902.69;;;2.79;87.14
4972;BME280;2501;51.214;6.768;2022-11-20T02:40:40;100904.56;;;2.84;87.03
4972;BME280;2501;51.214;6.768;2022-11-20T02:43:09;100907.22;;;2.85;86.49
4972;BME280;2501;51.214;6.768;2022-11-20T02:45:38;100906.69;;;2.71;86.88
4972;BME280;2501;51.214;6.768;2022-11-20T02:48:07;100905.75;;;2.69;87.10
4972;BME280;2501;51.214;6.768;2022-11-20T02:50:37;100902.91;;;2.63;87.17
4972;BME280;2501;51.214;6.768;2022-11-20T02:53:07;100898.19;;;2.53;87.54
4972;BME280;2501;51.214;6.768;2022-11-20T02:55:36;100901.59;;;2.52;88.07
4972;BME280;2501;51.214;6.768;2022-11-20T02:58:07;100897.31;;;2.53;88.24
4972;BME280;2501;51.214;6.768;2022-11-20T03:00:35;100902.91;;;2.63;87.49
4972;BME280;2501;51.214;6.768;2022-11-20T03:03:04;100904.50;;;2.60;87.54
4972;BME280;2501;51.214;6.768;2022-11-20T03:05:32;100903.63;;;2.59;87.56
4972;BME280;2501;51.214;6.768;2022-11-20T03:08:01;100903.66;;;2.61;87.92
4972;BME280;2501;51.214;6.768;2022-11-20T03:10:29;100901.38;;;2.68;87.79
4972;BME280;2501;51.214;6.768;2022-11-20T03:12:57;100897.56;;;2.59;87.86
4972;BME280;2501;51.214;6.768;2022-11-20T03:15:28;100906.78;;;2.52;87.85
4972;BME280;2501;51.214;6.768;2022-11-20T03:17:57;100895.47;;;2.50;88.24
4972;BME280;2501;51.214;6.768;2022-11-20T03:20:25;100900.59;;;2.49;88.24
4972;BME280;2501;51.214;6.768;2022-11-20T03:22:54;100903.03;;;2.45;88.87
4972;BME280;2501;51.214;6.768;2022-11-20T03:25:22;100901.66;;;2.33;89.05
4972;BME280;2501;51.214;6.768;2022-11-20T03:27:51;100896.56;;;2.34;89.31
4972;BME280;2501;51.214;6.768;2022-11-20T03:30:20;100886.88;;;2.09;89.35
4972;BME280;2501;51.214;6.768;2022-11-20T03:32:52;100899.75;;;2.29;89.79
4972;BME280;2501;51.214;6.768;2022-11-20T03:35:21;100899.91;;;2.32;89.85
4972;BME280;2501;51.214;6.768;2022-11-20T03:37:49;100899.00;;;2.31;90.04
4972;BME280;2501;51.214;6.768;2022-11-20T03:40:17;100898.06;;;2.29;89.81
4972;BME280;2501;51.214;6.768;2022-11-20T03:42:46;100888.16;;;2.19;90.12
4972;BME280;2501;51.214;6.768;2022-11-20T03:45:16;100887.97;;;2.15;90.62
4972;BME280;2501;51.214;6.768;2022-11-20T03:47:45;100892.81;;;2.28;90.66
4972;BME280;2501;51.214;6.768;2022-11-20T03:50:16;100892.25;;;2.35;90.49
4972;BME280;2501;51.214;6.768;2022-11-20T03:52:45;100884.09;;;2.26;90.36
4972;BME280;2501;51.214;6.768;2022-11-20T03:55:13;100886.06;;;2.31;90.36
4972;BME280;2501;51.214;6.768;2022-11-20T03:57:41;100888.66;;;2.31;90.52
4972;BME280;2501;51.214;6.768;2022-11-20T04:00:11;100900.22;;;2.39;90.05
4972;BME280;2501;51.214;6.768;2022-11-20T04:02:40;100901.78;;;2.36;89.91
4972;BME280;2501;51.214;6.768;2022-11-20T04:05:08;100895.53;;;2.52;89.90
4972;BME280;2501;51.214;6.768;2022-11-20T04:07:39;100885.25;;;2.53;89.42
4972;BME280;2501;51.214;6.768;2022-11-20T04:10:08;100890.28;;;2.50;89.13
4972;BME280;2501;51.214;6.768;2022-11-20T04:12:36;100885.81;;;2.46;88.92
4972;BME280;2501;51.214;6.768;2022-11-20T04:15:05;100880.69;;;2.48;89.07
4972;BME280;2501;51.214;6.768;2022-11-20T04:17:34;100884.03;;;2.45;89.42
4972;BME280;2501;51.214;6.768;2022-11-20T04:20:03;100884.03;;;2.45;89.78
4972;BME280;2501;51.214;6.768;2022-11-20T04:22:32;100892.13;;;2.53;90.60
4972;BME280;2501;51.214;6.768;2022-11-20T04:25:04;100890.13;;;3.11;89.87
4972;BME280;2501;51.214;6.768;2022-11-20T04:27:32;100883.06;;;3.31;87.47
4972;BME280;2501;51.214;6.768;2022-11-20T04:30:00;100877.50;;;3.20;87.02
4972;BME280;2501;51.214;6.768;2022-11-20T04:32:29;100892.66;;;2.66;90.30
4972;BME280;2501;51.214;6.768;2022-11-20T04:34:57;100886.53;;;2.42;92.46
4972;BME280;2501;51.214;6.768;2022-11-20T04:37:26;100891.81;;;2.45;94.08
4972;BME280;2501;51.214;6.768;2022-11-20T04:39:54;100890.56;;;2.15;95.00
4972;BME280;2501;51.214;6.768;2022-11-20T04:42:25;100892.69;;;2.04;95.82
4972;BME280;2501;51.214;6.768;2022-11-20T04:44:56;100897.53;;;1.96;96.62
4972;BME280;2501;51.214;6.768;2022-11-20T04:47:25;100892.59;;;1.82;97.02
4972;BME280;2501;51.214;6.768;2022-11-20T04:49:54;100888.44;;;1.85;97.48
4972;BME280;2501;51.214;6.768;2022-11-20T04:52:22;100885.63;;;2.00;97.42
4972;BME280;2501;51.214;6.768;2022-11-20T04:54:51;100885.63;;;2.00;96.88
4972;BME280;2501;51.214;6.768;2022-11-20T04:57:20;100890.34;;;1.89;96.90
4972;BME280;2501;51.214;6.768;2022-11-20T04:59:51;100882.16;;;1.99;96.59
4972;BME280;2501;51.214;6.768;2022-11-20T05:02:20;100886.94;;;1.90;96.58
4972;BME280;2501;51.214;6.768;2022-11-20T05:04:49;100884.28;;;1.89;96.57
4972;BME280;2501;51.214;6.768;2022-11-20T05:07:17;100879.13;;;1.89;96.72
4972;BME280;2501;51.214;6.768;2022-11-20T05:09:45;100891.09;;;1.87;96.80
4972;BME280;2501;51.214;6.768;2022-11-20T05:12:14;100890.28;;;1.88;96.82
4972;BME280;2501;51.214;6.768;2022-11-20T05:14:42;100892.97;;;1.91;96.59
4972;BME280;2501;51.214;6.768;2022-11-20T05:17:13;100891.41;;;1.94;96.04
4972;BME280;2501;51.214;6.768;2022-11-20T05:19:42;100887.69;;;1.88;96.25
4972;BME280;2501;51.214;6.768;2022-11-20T05:22:10;100880.13;;;1.92;96.33
4972;BME280;2501;51.214;6.768;2022-11-20T05:24:38;100880.81;;;2.09;95.63
4972;BME280;2501;51.214;6.768;2022-11-20T05:27:07;100887.28;;;2.19;95.23
4972;BME280;2501;51.214;6.768;2022-11-20T05:29:35;100890.63;;;2.16;95.10
4972;BME280;2501;51.214;6.768;2022-11-20T05:32:04;100886.31;;;2.17;94.57
4972;BME280;2501;51.214;6.768;2022-11-20T05:34:37;100885.72;;;2.22;94.67
4972;BME280;2501;51.214;6.768;2022-11-20T05:37:06;100887.34;;;2.20;94.72
4972;BME280;2501;51.214;6.768;2022-11-20T05:39:34;100883.81;;;2.18;95.01
4972;BME280;2501;51.214;6.768;2022-11-20T05:42:02;100889.28;;;2.26;94.60
4972;BME280;2501;51.214;6.768;2022-11-20T05:44:46;100888.16;;;2.19;94.31
4972;BME280;2501;51.214;6.768;2022-11-20T05:47:14;100888.97;;;2.18;94.42
4972;BME280;2501;51.214;6.768;2022-11-20T05:49:45;100888.72;;;2.33;94.34
4972;BME280;2501;51.214;6.768;2022-11-20T05:52:14;100883.06;;;2.41;93.73
4972;BME280;2501;51.214;6.768;2022-11-20T05:54:42;100876.09;;;2.40;93.98
4972;BME280;2501;51.214;6.768;2022-11-20T05:57:10;100883.97;;;2.43;93.29
4972;BME280;2501;51.214;6.768;2022-11-20T05:59:39;100881.25;;;2.84;92.38
4972;BME280;2501;51.214;6.768;2022-11-20T06:02:07;100880.09;;;2.98;91.62
4972;BME280;2501;51.214;6.768;2022-11-20T06:04:36;100879.03;;;2.93;91.08
4972;BME280;2501;51.214;6.768;2022-11-20T06:07:07;100867.69;;;3.13;90.73
4972;BME280;2501;51.214;6.768;2022-11-20T06:09:35;100877.38;;;2.72;91.45
4972;BME280;2501;51.214;6.768;2022-11-20T06:12:05;100879.84;;;2.69;91.01
4972;BME280;2501;51.214;6.768;2022-11-20T06:14:33;100868.97;;;2.35;92.74
4972;BME280;2501;51.214;6.768;2022-11-20T06:17:02;100879.66;;;2.65;94.08
4972;BME280;2501;51.214;6.768;2022-11-20T06:19:30;100865.13;;;3.13;92.01
4972;BME280;2501;51.214;6.768;2022-11-20T06:21:58;100865.84;;;3.09;90.43
4972;BME280;2501;51.214;6.768;2022-11-20T06:24:29;100873.81;;;2.48;91.28
4972;BME280;2501;51.214;6.768;2022-11-20T06:26:58;100878.09;;;2.27;93.15
4972;BME280;2501;51.214;6.768;2022-11-20T06:29:26;100878.03;;;2.25;94.21
4972;BME280;2501;51.214;6.768;2022-11-20T06:31:54;100879.50;;;2.19;94.82
4972;BME280;2501;51.214;6.768;2022-11-20T06:34:23;100879.06;;;2.29;95.15
4972;BME280;2501;51.214;6.768;2022-11-20T06:36:51;100877.06;;;2.22;95.49
4972;BME280;2501;51.214;6.768;2022-11-20T06:39:20;100881.63;;;2.50;95.65
4972;BME280;2501;51.214;6.768;2022-11-20T06:41:51;100876.91;;;2.83;94.29
4972;BME280;2501;51.214;6.768;2022-11-20T06:44:19;100872.84;;;3.11;91.96
4972;BME280;2501;51.214;6.768;2022-11-20T06:46:47;100884.81;;;3.08;90.38
4972;BME280;2501;51.214;6.768;2022-11-20T06:49:16;100886.47;;;3.06;89.86
4972;BME280;2501;51.214;6.768;2022-11-20T06:51:44;100882.34;;;2.89;90.15
4972;BME280;2501;51.214;6.768;2022-11-20T06:54:12;100882.75;;;2.77;89.59
4972;BME280;2501;51.214;6.768;2022-11-20T06:56:41;100883.88;;;2.40;88.81
4972;BME280;2501;51.214;6.768;2022-11-20T06:59:12;100887.06;;;2.76;88.37
4972;BME280;2501;51.214;6.768;2022-11-20T07:01:40;100889.47;;;2.30;88.95
4972;BME280;2501;51.214;6.768;2022-11-20T07:04:09;100890.69;;;2.18;90.68
4972;BME280;2501;51.214;6.768;2022-11-20T07:06:37;100907.03;;;2.37;91.68
4972;BME280;2501;51.214;6.768;2022-11-20T07:09:06;100905.69;;;2.68;90.11
4972;BME280;2501;51.214;6.768;2022-11-20T07:11:34;100906.22;;;2.59;89.55
4972;BME280;2501;51.214;6.768;2022-11-20T07:14:02;100902.53;;;2.54;89.58
4972;BME280;2501;51.214;6.768;2022-11-20T07:16:33;100906.16;;;2.58;90.68
4972;BME280;2501;51.214;6.768;2022-11-20T07:19:02;100907.78;;;2.56;91.08
4972;BME280;2501;51.214;6.768;2022-11-20T07:21:30;100909.50;;;2.55;91.45
4972;BME280;2501;51.214;6.768;2022-11-20T07:23:59;100899.97;;;2.54;91.51
4972;BME280;2501;51.214;6.768;2022-11-20T07:26:27;100903.56;;;2.58;91.59
4972;BME280;2501;51.214;6.768;2022-11-20T07:28:55;100905.38;;;2.60;91.71
4972;BME280;2501;51.214;6.768;2022-11-20T07:31:24;100909.69;;;2.39;92.06
4972;BME280;2501;51.214;6.768;2022-11-20T07:33:55;100910.28;;;2.75;91.96
4972;BME280;2501;51.214;6.768;2022-11-20T07:36:23;100914.69;;;2.77;90.58
4972;BME280;2501;51.214;6.768;2022-11-20T07:38:52;100909.16;;;2.68;90.92
4972;BME280;2501;51.214;6.768;2022-11-20T07:41:20;100912.94;;;2.76;91.04
4972;BME280;2501;51.214;6.768;2022-11-20T07:43:48;100903.94;;;2.89;91.03
4972;BME280;2501;51.214;6.768;2022-11-20T07:46:17;100901.13;;;3.05;90.73
4972;BME280;2501;51.214;6.768;2022-11-20T07:48:45;100890.75;;;3.05;89.88
4972;BME280;2501;51.214;6.768;2022-11-20T07:51:16;100899.06;;;2.54;90.67
4972;BME280;2501;51.214;6.768;2022-11-20T07:53:44;100893.75;;;2.51;92.26
4972;BME280;2501;51.214;6.768;2022-11-20T07:56:13;100896.75;;;2.60;93.32
4972;BME280;2501;51.214;6.768;2022-11-20T07:58:41;100896.63;;;2.57;93.84
4972;BME280;2501;51.214;6.768;2022-11-20T08:01:10;100891.50;;;2.58;93.96
4972;BME280;2501;51.214;6.768;2022-11-20T08:03:38;100896.78;;;2.61;93.93
4972;BME280;2501;51.214;6.768;2022-11-20T08:06:07;100892.16;;;2.75;93.79
4972;BME280;2501;51.214;6.768;2022-11-20T08:08:38;100884.47;;;2.76;93.68
4972;BME280;2501;51.214;6.768;2022-11-20T08:11:07;100881.19;;;2.82;93.87
4972;BME280;2501;51.214;6.768;2022-11-20T08:13:47;100876.50;;;2.72;94.12
4972;BME280;2501;51.214;6.768;2022-11-20T08:16:28;100877.59;;;2.78;94.00
4972;BME280;2501;51.214;6.768;2022-11-20T08:18:56;100882.75;;;2.77;94.09
4972;BME280;2501;51.214;6.768;2022-11-20T08:21:25;100881.91;;;2.78;94.16
4972;BME280;2501;51.214;6.768;2022-11-20T08:23:58;100887.97;;;2.78;94.55
4972;BME280;2501;51.214;6.768;2022-11-20T08:26:26;100895.97;;;2.85;94.50
4972;BME280;2501;51.214;6.768;2022-11-20T08:28:55;100895.97;;;2.85;94.29
4972;BME280;2501;51.214;6.768;2022-11-20T08:31:25;100892.16;;;2.75;94.38
4972;BME280;2501;51.214;6.768;2022-11-20T08:33:54;100891.28;;;2.74;94.48
4972;BME280;2501;51.214;6.768;2022-11-20T08:36:24;100879.28;;;2.76;94.58
4972;BME280;2501;51.214;6.768;2022-11-20T08:38:57;100892.97;;;2.96;94.11
4972;BME280;2501;51.214;6.768;2022-11-20T08:41:26;100901.53;;;2.94;93.84
4972;BME280;2501;51.214;6.768;2022-11-20T08:44:01;100897.75;;;2.86;94.20
4972;BME280;2501;51.214;6.768;2022-11-20T08:46:32;100898.16;;;2.74;94.97
4972;BME280;2501;51.214;6.768;2022-11-20T08:49:02;100889.94;;;2.63;95.76
4972;BME280;2501;51.214;6.768;2022-11-20T08:51:31;100884.28;;;2.72;96.75
4972;BME280;2501;51.214;6.768;2022-11-20T08:54:03;100895.56;;;2.74;97.00
4972;BME280;2501;51.214;6.768;2022-11-20T08:56:32;100894.09;;;2.80;97.09
4972;BME280;2501;51.214;6.768;2022-11-20T08:59:00;100904.28;;;2.98;97.10
4972;BME280;2501;51.214;6.768;2022-11-20T09:01:29;100904.75;;;2.88;96.74
4972;BME280;2501;51.214;6.768;2022-11-20T09:03:58;100904.59;;;3.06;96.65
4972;BME280;2501;51.214;6.768;2022-11-20T09:06:27;100899.63;;;3.12;96.20
4972;BME280;2501;51.214;6.768;2022-11-20T09:08:55;100889.69;;;3.23;95.83
4972;BME280;2501;51.214;6.768;2022-11-20T09:11:26;100884.75;;;3.30;95.36
4972;BME280;2501;51.214;6.768;2022-11-20T09:13:55;100874.75;;;3.39;95.01
4972;BME280;2501;51.214;6.768;2022-11-20T09:16:23;100884.19;;;3.37;94.42
4972;BME280;2501;51.214;6.768;2022-11-20T09:18:51;100870.72;;;3.24;94.04
4972;BME280;2501;51.214;6.768;2022-11-20T09:21:20;100868.88;;;3.21;94.71
4972;BME280;2501;51.214;6.768;2022-11-20T09:23:49;100876.03;;;3.04;95.10
4972;BME280;2501;51.214;6.768;2022-11-20T09:26:17;100871.09;;;3.10;95.65
4972;BME280;2501;51.214;6.768;2022-11-20T09:28:48;100861.75;;;3.15;95.30
4972;BME280;2501;51.214;6.768;2022-11-20T09:31:22;100860.81;;;3.13;94.76
4972;BME280;2501;51.214;6.768;2022-11-20T09:33:51;100858.34;;;3.17;94.22
4972;BME280;2501;51.214;6.768;2022-11-20T09:36:20;100859.28;;;3.19;93.98
4972;BME280;2501;51.214;6.768;2022-11-20T09:38:48;100864.19;;;3.35;93.14
4972;BME280;2501;51.214;6.768;2022-11-20T09:41:31;100854.72;;;3.59;91.87
4972;BME280;2501;51.214;6.768;2022-11-20T09:44:21;100852.03;;;3.56;90.34
4972;BME280;2501;51.214;6.768;2022-11-20T09:46:58;100854.44;;;3.52;89.66
4972;BME280;2501;51.214;6.768;2022-11-20T09:49:49;100854.78;;;3.61;89.48
4972;BME280;2501;51.214;6.768;2022-11-20T09:52:28;100853.19;;;3.90;89.29
4972;BME280;2501;51.214;6.768;2022-11-20T09:55:01;100859.31;;;3.92;87.81
4972;BME280;2501;51.214;6.768;2022-11-20T09:57:35;100861.09;;;3.69;87.10
4972;BME280;2501;51.214;6.768;2022-11-20T10:00:10;100859.34;;;3.68;86.42
4972;BME280;2501;51.214;6.768;2022-11-20T10:02:44;100864.38;;;3.63;85.93
4972;BME280;2501;51.214;6.768;2022-11-20T10:05:18;100857.22;;;3.81;85.72
4972;BME280;2501;51.214;6.768;2022-11-20T10:07:53;100860.88;;;3.87;85.08
4972;BME280;2501;51.214;6.768;2022-11-20T10:10:31;100862.31;;;3.78;84.28
4972;BME280;2501;51.214;6.768;2022-11-20T10:13:15;100855.09;;;3.70;84.41
4972;BME280;2501;51.214;6.768;2022-11-20T10:15:54;100853.66;;;3.54;85.14
4972;BME280;2501;51.214;6.768;2022-11-20T10:18:38;100845.78;;;3.75;85.41
4972;BME280;2501;51.214;6.768;2022-11-20T10:21:14;100840.81;;;3.82;85.54
4972;BME280;2501;51.214;6.768;2022-11-20T10:24:05;100841.13;;;3.66;85.13
4972;BME280;2501;51.214;6.768;2022-11-20T10:26:43;100828.69;;;3.56;85.53
4972;BME280;2501;51.214;6.768;2022-11-20T10:29:17;100824.66;;;3.90;86.00
4972;BME280;2501;51.214;6.768;2022-11-20T10:31:54;100819.59;;;3.69;85.91
4972;BME280;2501;51.214;6.768;2022-11-20T10:34:26;100816.94;;;3.67;86.61
4972;BME280;2501;51.214;6.768;2022-11-20T10:37:00;100821.25;;;3.67;86.95
4972;BME280;2501;51.214;6.768;2022-11-20T10:39:35;100817.22;;;3.75;87.46
4972;BME280;2501;51.214;6.768;2022-11-20T10:42:09;100811.72;;;3.66;87.44
4972;BME280;2501;51.214;6.768;2022-11-20T10:44:39;100800.72;;;3.73;87.38
4972;BME280;2501;51.214;6.768;2022-11-20T10:47:28;100793.88;;;3.75;87.08
4972;BME280;2501;51.214;6.768;2022-11-20T10:50:03;100793.56;;;3.91;86.62
4972;BME280;2501;51.214;6.768;2022-11-20T10:52:37;100792.63;;;4.16;85.68
4972;BME280;2501;51.214;6.768;2022-11-20T10:55:21;100789.22;;;4.17;85.42
4972;BME280;2501;51.214;6.768;2022-11-20T10:58:00;100782.25;;;4.16;85.19
4972;BME280;2501;51.214;6.768;2022-11-20T11:00:30;100782.03;;;4.08;85.24
4972;BME280;2501;51.214;6.768;2022-11-20T11:03:02;100775.56;;;4.23;85.11
4972;BME280;2501;51.214;6.768;2022-11-20T11:05:36;100770.72;;;4.06;85.29
4972;BME280;2501;51.214;6.768;2022-11-20T11:08:12;100767.66;;;4.19;85.01
4972;BME280;2501;51.214;6.768;2022-11-20T11:10:45;100765.34;;;4.02;85.11
4972;BME280;2501;51.214;6.768;2022-11-20T11:13:21;100751.59;;;4.04;85.34
4972;BME280;2501;51.214;6.768;2022-11-20T11:15:50;100750.72;;;4.04;85.98
4972;BME280;2501;51.214;6.768;2022-11-20T11:18:29;100746.53;;;4.36;85.24
4972;BME280;2501;51.214;6.768;2022-11-20T11:21:01;100748.41;;;4.40;85.01
4972;BME280;2501;51.214;6.768;2022-11-20T11:23:32;100744.28;;;4.46;85.03
4972;BME280;2501;51.214;6.768;2022-11-20T11:26:03;100740.38;;;4.32;84.95
4972;BME280;2501;51.214;6.768;2022-11-20T11:28:32;100742.41;;;4.14;85.32
4972;BME280;2501;51.214;6.768;2022-11-20T11:31:01;100730.94;;;4.07;85.32
4972;BME280;2501;51.214;6.768;2022-11-20T11:33:32;100722.06;;;4.28;85.14
4972;BME280;2501;51.214;6.768;2022-11-20T11:36:04;100726.44;;;4.29;85.19
4972;BME280;2501;51.214;6.768;2022-11-20T11:38:44;100712.81;;;4.37;84.84
4972;BME280;2501;51.214;6.768;2022-11-20T11:41:16;100722.28;;;4.35;84.79
4972;BME280;2501;51.214;6.768;2022-11-20T11:43:51;100709.44;;;4.40;84.67
4972;BME280;2501;51.214;6.768;2022-11-20T11:46:34;100704.06;;;4.34;84.67
4972;BME280;2501;51.214;6.768;2022-11-20T11:49:15;100694.94;;;4.46;84.07
4972;BME280;2501;51.214;6.768;2022-11-20T11:51:57;100691.84;;;4.60;84.37
4972;BME280;2501;51.214;6.768;2022-11-20T11:54:31;100681.16;;;4.49;84.23
4972;BME280;2501;51.214;6.768;2022-11-20T11:57:10;100674.69;;;4.65;84.02
4972;BME280;2501;51.214;6.768;2022-11-20T11:59:48;100667.72;;;4.64;83.85
4972;BME280;2501;51.214;6.768;2022-11-20T12:02:29;100666.22;;;4.72;83.50
4972;BME280;2501;51.214;6.768;2022-11-20T12:05:09;100671.00;;;4.88;82.54
4972;BME280;2501;51.214;6.768;2022-11-20T12:07:41;100659.75;;;4.89;82.53
4972;BME280;2501;51.214;6.768;2022-11-20T12:10:20;100660.34;;;5.10;82.22
4972;BME280;2501;51.214;6.768;2022-11-20T12:12:53;100664.66;;;5.10;81.68
4972;BME280;2501;51.214;6.768;2022-11-20T12:15:28;100661.19;;;5.09;81.70
4972;BME280;2501;51.214;6.768;2022-11-20T12:17:57;100653.69;;;5.21;80.77
4972;BME280;2501;51.214;6.768;2022-11-20T12:20:31;100652.09;;;4.94;81.68
4972;BME280;2501;51.214;6.768;2022-11-20T12:23:05;100648.03;;;4.72;82.66
4972;BME280;2501;51.214;6.768;2022-11-20T12:25:36;100651.22;;;4.93;82.95
4972;BME280;2501;51.214;6.768;2022-11-20T12:28:20;100650.06;;;5.15;81.98
4972;BME280;2501;51.214;6.768;2022-11-20T12:31:03;100642.03;;;5.06;82.45
4972;BME280;2501;51.214;6.768;2022-11-20T12:33:54;100643.69;;;5.04;81.77
4972;BME280;2501;51.214;6.768;2022-11-20T12:36:37;100637.22;;;4.88;82.84
4972;BME280;2501;51.214;6.768;2022-11-20T12:42:23;100638.00;;;4.85;83.71
4972;BME280;2501;51.214;6.768;2022-11-20T12:45:41;100620.81;;;4.90;84.66
4972;BME280;2501;51.214;6.768;2022-11-20T12:51:34;100626.03;;;4.90;84.83
4972;BME280;2501;51.214;6.768;2022-11-20T12:54:27;100621.75;;;4.93;85.20
4972;BME280;2501;51.214;6.768;2022-11-20T12:57:06;100609.47;;;4.87;87.31
4972;BME280;2501;51.214;6.768;2022-11-20T13:00:06;100597.25;;;4.83;89.69
4972;BME280;2501;51.214;6.768;2022-11-20T13:02:45;100591.41;;;4.92;90.23
4972;BME280;2501;51.214;6.768;2022-11-20T13:05:28;100583.78;;;4.65;90.85
4972;BME280;2501;51.214;6.768;2022-11-20T13:08:02;100575.47;;;4.78;91.79
4972;BME280;2501;51.214;6.768;2022-11-20T13:10:35;100577.34;;;4.85;91.83
4972;BME280;2501;51.214;6.768;2022-11-20T13:13:13;100577.53;;;4.91;92.34
4972;BME280;2501;51.214;6.768;2022-11-20T13:15:50;100572.81;;;4.76;91.96
4972;BME280;2501;51.214;6.768;2022-11-20T13:18:22;100570.31;;;4.79;92.40
4972;BME280;2501;51.214;6.768;2022-11-20T13:20:50;100566.63;;;4.71;92.80
4972;BME280;2501;51.214;6.768;2022-11-20T13:23:28;100558.47;;;4.90;92.64
4972;BME280;2501;51.214;6.768;2022-11-20T13:26:04;100557.03;;;5.03;92.41
4972;BME280;2501;51.214;6.768;2022-11-20T13:28:33;100555.34;;;5.05;92.39
4972;BME280;2501;51.214;6.768;2022-11-20T13:31:02;100544.38;;;5.15;92.41
4972;BME280;2501;51.214;6.768;2022-11-20T13:33:33;100539.59;;;4.98;91.80
4972;BME280;2501;51.214;6.768;2022-11-20T13:36:04;100530.31;;;5.09;92.04
4972;BME280;2501;51.214;6.768;2022-11-20T13:38:44;100532.25;;;5.16;92.20
4972;BME280;2501;51.214;6.768;2022-11-20T13:41:24;100527.81;;;5.12;91.90
4972;BME280;2501;51.214;6.768;2022-11-20T13:44:09;100520.72;;;5.06;91.98
4972;BME280;2501;51.214;6.768;2022-11-20T13:46:40;100515.72;;;5.14;92.08
4972;BME280;2501;51.214;6.768;2022-11-20T13:49:18;100512.00;;;5.04;92.36
4972;BME280;2501;51.214;6.768;2022-11-20T13:51:51;100507.81;;;5.09;92.26
4972;BME280;2501;51.214;6.768;2022-11-20T13:57:46;100491.75;;;5.27;92.09